createdAt,value
2022-09-25T00:01:12.047Z,11.10
2022-09-25T00:03:40.283Z,11.10
2022-09-25T00:06:17.795Z,11.10
2022-09-25T00:08:45.587Z,11.10
2022-09-25T00:11:19.650Z,11.00
2022-09-25T00:13:47.496Z,11.00
2022-09-25T00:16:17.753Z,11.00
2022-09-25T00:19:04.187Z,10.90
2022-09-25T00:21:33.284Z,10.90
2022-09-25T00:24:09.614Z,10.80
2022-09-25T00:26:40.269Z,10.90
2022-09-25T00:29:09.140Z,10.90
2022-09-25T00:31:36.551Z,11.60
2022-09-25T00:34:05.601Z,10.90
2022-09-25T00:36:34.078Z,10.80
2022-09-25T00:39:01.671Z,10.90
2022-09-25T00:41:31.928Z,10.80
2022-09-25T00:44:01.046Z,10.80
2022-09-25T00:46:31.605Z,10.80
2022-09-25T00:49:34.771Z,10.70
2022-09-25T00:52:13.775Z,10.80
2022-09-25T00:55:07.088Z,10.70
2022-09-25T00:57:38.186Z,10.70
2022-09-25T01:00:12.080Z,10.70
2022-09-25T01:02:43.483Z,10.70
2022-09-25T01:05:18.357Z,10.60
2022-09-25T01:07:49.737Z,10.60
2022-09-25T01:10:19.677Z,10.60
2022-09-25T01:12:49.116Z,10.50
2022-09-25T01:15:19.375Z,10.40
2022-09-25T01:18:23.763Z,10.30
2022-09-25T01:21:20.656Z,10.30
2022-09-25T01:24:00.089Z,10.20
2022-09-25T01:27:06.409Z,10.20
2022-09-25T01:29:44.320Z,10.10
2022-09-25T01:32:23.727Z,10.00
2022-09-25T01:35:05.770Z,10.00
2022-09-25T01:37:59.896Z,10.00
2022-09-25T01:40:35.235Z,10.00
2022-09-25T01:43:26.794Z,10.00
2022-09-25T01:45:58.903Z,10.00
2022-09-25T01:48:30.172Z,10.00
2022-09-25T01:51:00.297Z,9.90
2022-09-25T01:53:42.543Z,11.50
2022-09-25T01:56:23.304Z,9.90
2022-09-25T01:58:56.835Z,9.90
2022-09-25T02:01:30.192Z,10.20
2022-09-25T02:04:08.824Z,9.80
2022-09-25T02:06:40.460Z,9.90
2022-09-25T02:09:21.946Z,9.90
2022-09-25T02:11:54.749Z,9.90
2022-09-25T02:14:39.199Z,9.60
2022-09-25T02:17:11.110Z,9.90
2022-09-25T02:19:58.101Z,9.90
2022-09-25T02:22:34.473Z,10.00
2022-09-25T02:25:18.009Z,9.90
2022-09-25T02:27:46.388Z,9.90
2022-09-25T02:30:13.929Z,9.80
2022-09-25T02:32:41.439Z,9.90
2022-09-25T02:37:37.284Z,9.70
2022-09-25T02:40:05.598Z,9.70
2022-09-25T02:45:06.955Z,9.60
2022-09-25T02:52:57.694Z,9.80
2022-09-25T02:55:34.268Z,9.40
2022-09-25T02:58:01.651Z,9.00
2022-09-25T03:00:30.339Z,9.10
2022-09-25T03:03:00.100Z,9.30
2022-09-25T03:10:46.084Z,9.10
2022-09-25T03:13:19.309Z,9.00
2022-09-25T03:15:52.724Z,9.00
2022-09-25T03:18:20.179Z,9.00
2022-09-25T03:20:47.668Z,9.10
2022-09-25T03:23:15.463Z,9.00
2022-09-25T03:25:49.012Z,9.40
2022-09-25T03:31:03.676Z,9.00
2022-09-25T03:33:39.566Z,9.10
2022-09-25T03:36:19.003Z,9.00
2022-09-25T03:38:49.251Z,9.00
2022-09-25T03:41:21.045Z,8.90
2022-09-25T03:43:51.779Z,8.90
2022-09-25T03:46:22.082Z,8.60
2022-09-25T03:48:50.057Z,7.70
2022-09-25T03:51:18.699Z,8.90
2022-09-25T03:53:47.409Z,8.70
2022-09-25T03:56:18.058Z,8.60
2022-09-25T03:58:46.145Z,9.10
2022-09-25T04:01:14.924Z,8.70
2022-09-25T04:03:47.139Z,8.90
2022-09-25T04:06:18.302Z,8.70
2022-09-25T04:08:47.483Z,8.70
2022-09-25T04:11:16.974Z,8.70
2022-09-25T04:16:14.399Z,8.80
2022-09-25T04:18:43.044Z,8.50
2022-09-25T04:21:12.578Z,8.20
2022-09-25T04:26:09.116Z,8.50
2022-09-25T04:28:37.135Z,8.50
2022-09-25T04:33:47.883Z,8.40
2022-09-25T04:36:17.146Z,8.50
2022-09-25T04:38:44.864Z,10.30
2022-09-25T04:41:12.400Z,8.40
2022-09-25T04:43:41.328Z,8.40
2022-09-25T04:46:12.412Z,11.20
2022-09-25T04:48:46.136Z,6.40
2022-09-25T04:51:13.655Z,8.10
2022-09-25T04:56:15.392Z,8.50
2022-09-25T04:58:48.451Z,9.10
2022-09-25T05:01:17.940Z,8.60
2022-09-25T05:03:52.467Z,8.20
2022-09-25T05:06:20.282Z,8.20
2022-09-25T05:08:49.743Z,8.20
2022-09-25T05:11:17.542Z,8.20
2022-09-25T05:13:46.486Z,8.20
2022-09-25T05:16:14.178Z,8.40
2022-09-25T05:18:41.762Z,8.50
2022-09-25T05:26:04.984Z,8.20
2022-09-25T05:28:33.362Z,8.30
2022-09-25T05:31:03.586Z,8.20
2022-09-25T05:33:33.022Z,8.00
2022-09-25T05:36:05.246Z,7.90
2022-09-25T05:38:34.344Z,8.00
2022-09-25T05:41:06.853Z,7.70
2022-09-25T05:43:40.134Z,8.00
2022-09-25T05:48:36.084Z,8.00
2022-09-25T05:53:31.631Z,7.50
2022-09-25T05:56:01.834Z,8.00
2022-09-25T05:58:30.967Z,8.00
2022-09-25T06:01:03.735Z,8.40
2022-09-25T06:03:31.945Z,8.00
2022-09-25T06:06:00.691Z,7.90
2022-09-25T06:08:31.141Z,8.00
2022-09-25T06:11:01.282Z,7.90
2022-09-25T06:15:59.403Z,7.90
2022-09-25T06:18:27.683Z,7.70
2022-09-25T06:21:02.641Z,7.80
2022-09-25T06:23:30.733Z,7.90
2022-09-25T06:26:02.864Z,10.70
2022-09-25T06:28:31.023Z,7.90
2022-09-25T06:31:01.860Z,7.90
2022-09-25T06:33:32.792Z,7.90
2022-09-25T06:36:00.899Z,10.50
2022-09-25T06:38:28.434Z,8.40
2022-09-25T06:40:59.485Z,8.20
2022-09-25T06:43:27.897Z,8.00
2022-09-25T06:45:55.403Z,8.00
2022-09-25T06:48:23.006Z,8.00
2022-09-25T06:50:52.783Z,8.10
2022-09-25T06:53:21.488Z,8.20
2022-09-25T06:55:49.904Z,10.00
2022-09-25T06:58:20.536Z,8.30
2022-09-25T07:00:49.647Z,8.50
2022-09-25T07:03:35.623Z,8.40
2022-09-25T07:06:05.745Z,8.50
2022-09-25T07:08:33.293Z,8.60
2022-09-25T07:11:01.972Z,8.60
2022-09-25T07:13:31.527Z,8.80
2022-09-25T07:16:15.205Z,8.70
2022-09-25T07:18:43.993Z,8.70
2022-09-25T07:21:14.122Z,8.80
2022-09-25T07:23:42.596Z,10.40
2022-09-25T07:26:16.323Z,8.90
2022-09-25T07:28:44.544Z,9.00
2022-09-25T07:31:17.444Z,9.10
2022-09-25T07:33:46.190Z,9.10
2022-09-25T07:36:15.080Z,9.20
2022-09-25T07:38:42.629Z,9.20
2022-09-25T07:41:11.463Z,9.20
2022-09-25T07:43:40.028Z,9.30
2022-09-25T07:46:07.632Z,9.30
2022-09-25T07:48:35.127Z,9.40
2022-09-25T07:51:04.515Z,8.50
2022-09-25T07:56:06.068Z,9.50
2022-09-25T07:58:37.934Z,9.60
2022-09-25T08:01:08.366Z,9.70
2022-09-25T08:03:36.050Z,9.80
2022-09-25T08:06:13.450Z,9.80
2022-09-25T08:08:42.211Z,9.90
2022-09-25T08:11:14.753Z,9.90
2022-09-25T08:16:14.076Z,10.10
2022-09-25T08:18:45.415Z,10.10
2022-09-25T08:21:15.653Z,10.20
2022-09-25T08:23:48.037Z,10.20
2022-09-25T08:26:21.084Z,10.30
2022-09-25T08:28:49.071Z,10.40
2022-09-25T08:31:17.834Z,12.30
2022-09-25T08:33:47.012Z,10.60
2022-09-25T08:36:16.166Z,10.50
2022-09-25T08:38:44.223Z,10.60
2022-09-25T08:41:18.071Z,10.70
2022-09-25T08:43:52.196Z,10.80
2022-09-25T08:46:53.794Z,9.30
2022-09-25T08:49:26.302Z,10.90
2022-09-25T08:51:59.670Z,11.00
2022-09-25T08:54:30.255Z,11.50
2022-09-25T08:57:40.195Z,11.20
2022-09-25T09:00:12.335Z,11.30
2022-09-25T09:02:43.888Z,11.30
2022-09-25T09:05:27.244Z,11.40
2022-09-25T09:08:02.081Z,11.40
2022-09-25T09:10:43.760Z,11.50
2022-09-25T09:13:17.544Z,12.50
2022-09-25T09:15:55.427Z,11.60
2022-09-25T09:18:28.121Z,11.60
2022-09-25T09:20:58.254Z,11.70
2022-09-25T09:23:36.304Z,11.80
2022-09-25T09:26:14.320Z,11.80
2022-09-25T09:28:59.601Z,11.90
2022-09-25T09:31:46.810Z,12.00
2022-09-25T09:35:04.018Z,12.10
2022-09-25T09:37:44.520Z,12.10
2022-09-25T09:40:24.852Z,12.20
2022-09-25T09:43:19.174Z,12.30
2022-09-25T09:45:54.312Z,12.40
2022-09-25T09:48:35.086Z,12.60
2022-09-25T09:51:18.597Z,12.70
2022-09-25T09:53:54.135Z,12.80
2022-09-25T09:56:32.304Z,12.90
2022-09-25T09:59:06.930Z,13.00
2022-09-25T10:01:41.749Z,13.20
2022-09-25T10:04:14.799Z,13.20
2022-09-25T10:07:13.917Z,13.30
2022-09-25T10:09:41.384Z,13.30
2022-09-25T10:12:32.866Z,13.30
2022-09-25T10:15:04.435Z,13.30
2022-09-25T10:17:33.403Z,13.40
2022-09-25T10:20:15.509Z,13.40
2022-09-25T10:22:46.663Z,13.60
2022-09-25T10:25:14.384Z,13.40
2022-09-25T10:27:48.026Z,13.80
2022-09-25T10:30:21.909Z,14.00
2022-09-25T10:33:02.083Z,14.40
2022-09-25T10:38:00.630Z,14.20
2022-09-25T10:40:33.497Z,14.30
2022-09-25T10:43:16.705Z,14.30
2022-09-25T10:48:43.109Z,14.30
2022-09-25T10:51:11.862Z,14.30
2022-09-25T10:53:39.829Z,14.40
2022-09-25T10:56:12.503Z,14.40
2022-09-25T10:58:58.091Z,14.30
2022-09-25T11:01:43.100Z,14.40
2022-09-25T11:04:22.388Z,14.40
2022-09-25T11:06:55.528Z,14.50
2022-09-25T11:09:25.621Z,15.00
2022-09-25T11:12:04.811Z,14.90
2022-09-25T11:14:35.283Z,15.20
2022-09-25T11:17:06.492Z,15.60
2022-09-25T11:19:36.778Z,15.60
2022-09-25T11:22:25.744Z,15.60
2022-09-25T11:25:11.716Z,15.40
2022-09-25T11:28:07.025Z,15.30
2022-09-25T11:30:55.060Z,15.20
2022-09-25T11:33:26.027Z,15.20
2022-09-25T11:36:12.279Z,15.10
2022-09-25T11:38:58.214Z,15.10
2022-09-25T11:41:40.921Z,15.40
2022-09-25T11:44:11.304Z,15.30
2022-09-25T11:46:56.661Z,15.80
2022-09-25T11:49:29.114Z,15.60
2022-09-25T11:52:11.344Z,16.30
2022-09-25T11:55:00.155Z,15.80
2022-09-25T11:57:54.399Z,16.30
2022-09-25T12:03:15.158Z,16.30
2022-09-25T12:08:24.408Z,16.40
2022-09-25T12:13:54.261Z,16.40
2022-09-25T12:16:23.576Z,16.60
2022-09-25T12:21:33.954Z,16.70
2022-09-25T12:24:15.120Z,16.40
2022-09-25T12:27:06.208Z,16.10
2022-09-25T12:30:09.044Z,16.40
2022-09-25T12:33:02.855Z,16.50
2022-09-25T12:35:47.224Z,16.70
2022-09-25T12:38:43.945Z,17.00
2022-09-25T12:41:29.954Z,17.10
2022-09-25T12:44:07.349Z,17.50
2022-09-25T12:46:44.261Z,17.60
2022-09-25T12:49:18.578Z,17.60
2022-09-25T12:51:50.752Z,17.80
2022-09-25T12:54:28.149Z,17.90
2022-09-25T12:57:23.343Z,17.90
2022-09-25T13:00:04.765Z,17.90
2022-09-25T13:02:59.411Z,18.00
2022-09-25T13:05:30.340Z,18.00
2022-09-25T13:08:03.887Z,18.10
2022-09-25T13:10:56.760Z,18.30
2022-09-25T13:13:27.943Z,18.30
2022-09-25T13:16:00.391Z,18.30
2022-09-25T13:18:30.102Z,18.30
2022-09-25T13:21:01.634Z,18.30
2022-09-25T13:23:35.605Z,18.20
2022-09-25T13:26:12.509Z,18.10
2022-09-25T13:29:01.954Z,18.10
2022-09-25T13:31:34.761Z,18.10
2022-09-25T13:34:12.342Z,18.10
2022-09-25T13:36:58.465Z,18.20
2022-09-25T13:39:46.145Z,18.20
2022-09-25T13:42:36.073Z,18.20
2022-09-25T13:45:21.616Z,18.00
2022-09-25T13:48:12.528Z,18.00
2022-09-25T13:50:42.957Z,17.80
2022-09-25T13:53:20.660Z,17.70
2022-09-25T13:55:49.480Z,17.60
2022-09-25T13:58:21.286Z,17.50
2022-09-25T14:00:58.640Z,17.40
2022-09-25T14:03:44.575Z,17.40
2022-09-25T14:06:25.986Z,17.30
2022-09-25T14:08:56.818Z,17.30
2022-09-25T14:11:32.355Z,17.40
2022-09-25T14:14:04.731Z,17.40
2022-09-25T14:16:35.514Z,17.50
2022-09-25T14:19:05.296Z,17.50
2022-09-25T14:21:36.374Z,17.70
2022-09-25T14:24:33.320Z,17.80
2022-09-25T14:27:01.913Z,17.90
2022-09-25T14:29:39.136Z,18.00
2022-09-25T14:32:54.029Z,18.00
2022-09-25T14:35:38.154Z,18.00
2022-09-25T14:38:36.854Z,18.10
2022-09-25T14:41:49.044Z,18.00
2022-09-25T14:44:42.204Z,18.10
2022-09-25T14:47:14.001Z,18.00
2022-09-25T14:49:46.535Z,18.00
2022-09-25T14:52:24.028Z,18.00
2022-09-25T14:54:55.169Z,18.00
2022-09-25T14:57:30.999Z,18.00
2022-09-25T15:00:04.723Z,17.90
2022-09-25T15:02:39.231Z,17.80
2022-09-25T15:05:37.690Z,17.80
2022-09-25T15:08:23.342Z,17.70
2022-09-25T15:11:21.864Z,17.60
2022-09-25T15:13:49.381Z,17.50
2022-09-25T15:16:42.665Z,17.40
2022-09-25T15:19:44.754Z,17.40
2022-09-25T15:22:23.740Z,17.30
2022-09-25T15:25:01.561Z,17.20
2022-09-25T15:27:29.994Z,17.20
2022-09-25T15:30:00.241Z,17.10
2022-09-25T15:32:39.390Z,17.10
2022-09-25T15:35:15.106Z,17.10
2022-09-25T15:37:42.688Z,17.20
2022-09-25T15:40:15.979Z,17.20
2022-09-25T15:42:48.184Z,17.20
2022-09-25T15:45:51.968Z,17.20
2022-09-25T15:48:31.210Z,17.20
2022-09-25T15:51:21.186Z,17.10
2022-09-25T15:53:55.025Z,17.00
2022-09-25T15:56:28.934Z,16.90
2022-09-25T15:59:13.748Z,16.80
2022-09-25T16:02:25.776Z,17.20
2022-09-25T16:04:54.370Z,16.30
2022-09-25T16:07:29.264Z,16.80
2022-09-25T16:10:14.304Z,16.90
2022-09-25T16:12:46.509Z,16.90
2022-09-25T16:15:26.884Z,17.80
2022-09-25T16:18:18.564Z,16.90
2022-09-25T16:23:29.970Z,16.80
2022-09-25T16:25:58.595Z,16.70
2022-09-25T16:28:28.883Z,16.60
2022-09-25T16:31:08.485Z,16.40
2022-09-25T16:33:40.175Z,16.30
2022-09-25T16:36:17.466Z,16.20
2022-09-25T16:39:13.338Z,16.10
2022-09-25T16:41:46.594Z,16.00
2022-09-25T16:44:38.143Z,15.90
2022-09-25T16:47:14.417Z,15.70
2022-09-25T16:49:43.624Z,15.70
2022-09-25T16:52:20.793Z,15.50
2022-09-25T16:54:54.232Z,15.00
2022-09-25T16:57:27.709Z,15.30
2022-09-25T17:02:33.152Z,15.70
2022-09-25T17:05:06.934Z,15.00
2022-09-25T17:07:34.403Z,15.10
2022-09-25T17:10:02.274Z,15.10
2022-09-25T17:12:31.298Z,15.00
2022-09-25T17:17:26.824Z,14.80
2022-09-25T17:19:54.324Z,14.40
2022-09-25T17:25:01.625Z,14.60
2022-09-25T17:29:56.831Z,14.50
2022-09-25T17:32:24.264Z,14.60
2022-09-25T17:34:51.893Z,13.80
2022-09-25T17:37:19.375Z,14.30
2022-09-25T17:39:49.230Z,13.90
2022-09-25T17:44:47.389Z,13.80
2022-09-25T17:47:15.199Z,13.60
2022-09-25T17:52:16.660Z,13.20
2022-09-25T17:59:39.931Z,13.00
2022-09-25T18:02:14.727Z,12.80
2022-09-25T18:07:12.116Z,13.00
2022-09-25T18:09:39.890Z,12.80
2022-09-25T18:12:08.538Z,12.70
2022-09-25T18:17:03.748Z,12.50
2022-09-25T18:24:56.549Z,12.60
2022-09-25T18:27:27.467Z,12.60
2022-09-25T18:34:52.126Z,12.60
2022-09-25T18:37:19.656Z,12.80
2022-09-25T18:39:48.106Z,12.80
2022-09-25T18:44:43.791Z,12.50
2022-09-25T18:47:11.624Z,12.60
2022-09-25T18:52:19.334Z,11.90
2022-09-25T18:54:47.650Z,12.30
2022-09-25T18:59:44.569Z,12.30
2022-09-25T19:02:19.903Z,12.50
2022-09-25T19:04:52.060Z,12.20
2022-09-25T19:09:47.208Z,12.30
2022-09-25T19:12:17.067Z,12.30
2022-09-25T19:14:46.291Z,12.40
2022-09-25T19:17:14.976Z,12.00
2022-09-25T19:22:19.577Z,11.90
2022-09-25T19:24:48.827Z,11.90
2022-09-25T19:27:17.572Z,11.80
2022-09-25T19:29:45.608Z,11.70
2022-09-25T19:32:15.165Z,12.20
2022-09-25T19:39:57.503Z,11.70
2022-09-25T19:42:27.482Z,11.70
2022-09-25T19:44:57.595Z,11.60
2022-09-25T19:47:28.672Z,11.60
2022-09-25T19:49:56.176Z,11.50
2022-09-25T19:54:51.729Z,11.30
2022-09-25T19:59:49.237Z,11.00
2022-09-25T20:02:17.030Z,11.30
2022-09-25T20:07:17.258Z,11.10
2022-09-25T20:09:44.742Z,11.20
2022-09-25T20:14:40.620Z,11.20
2022-09-25T20:17:10.035Z,11.10
2022-09-25T20:19:37.814Z,11.20
2022-09-25T20:22:05.853Z,12.50
2022-09-25T20:24:33.744Z,11.30
2022-09-25T20:27:01.195Z,11.30
2022-09-25T20:29:29.106Z,11.30
2022-09-25T20:31:56.865Z,11.30
2022-09-25T20:34:24.294Z,11.30
2022-09-25T20:36:51.772Z,11.30
2022-09-25T20:39:21.467Z,11.40
2022-09-25T20:41:50.206Z,11.40
2022-09-25T20:44:17.673Z,11.40
2022-09-25T20:46:45.344Z,11.50
2022-09-25T20:49:13.195Z,11.50
2022-09-25T20:51:41.231Z,11.60
2022-09-25T20:54:10.106Z,11.60
2022-09-25T20:56:43.521Z,11.70
2022-09-25T20:59:12.035Z,11.70
2022-09-25T21:01:43.722Z,11.80
2022-09-25T21:04:11.351Z,11.90
2022-09-25T21:06:41.256Z,11.90
2022-09-25T21:09:17.236Z,11.90
2022-09-25T21:11:44.817Z,12.00
2022-09-25T21:14:18.760Z,12.00
2022-09-25T21:16:47.298Z,12.10
2022-09-25T21:19:16.573Z,12.10
2022-09-25T21:21:44.793Z,12.10
2022-09-25T21:24:15.724Z,12.10
2022-09-25T21:26:43.681Z,12.10
2022-09-25T21:29:12.523Z,12.10
2022-09-25T21:31:48.213Z,12.20
2022-09-25T21:34:17.733Z,12.90
2022-09-25T21:36:46.592Z,12.20
2022-09-25T21:39:14.639Z,12.20
2022-09-25T21:41:42.219Z,12.20
2022-09-25T21:44:14.798Z,12.30
2022-09-25T21:49:15.871Z,12.30
2022-09-25T21:51:44.590Z,12.30
2022-09-25T21:54:13.776Z,12.30
2022-09-25T21:56:46.329Z,12.30
2022-09-25T21:59:14.308Z,12.30
2022-09-25T22:01:42.315Z,12.30
2022-09-25T22:04:12.685Z,12.30
2022-09-25T22:06:44.370Z,12.30
2022-09-25T22:09:18.508Z,12.90
2022-09-25T22:11:47.619Z,12.30
2022-09-25T22:14:16.533Z,12.30
2022-09-25T22:16:47.555Z,12.40
2022-09-25T22:19:25.157Z,12.60
2022-09-25T22:21:54.692Z,12.40
2022-09-25T22:24:22.659Z,12.40
2022-09-25T22:26:51.830Z,12.40
2022-09-25T22:29:20.816Z,11.30
2022-09-25T22:31:49.072Z,12.40
2022-09-25T22:34:20.718Z,12.40
2022-09-25T22:36:48.965Z,12.30
2022-09-25T22:39:18.528Z,12.30
2022-09-25T22:41:52.643Z,12.30
2022-09-25T22:44:20.927Z,12.30
2022-09-25T22:46:48.406Z,12.30
2022-09-25T22:49:16.054Z,12.20
2022-09-25T22:51:43.560Z,12.20
2022-09-25T22:54:13.737Z,12.20
2022-09-25T22:56:41.700Z,12.20
2022-09-25T22:59:13.062Z,12.10
2022-09-25T23:01:45.169Z,12.10
2022-09-25T23:04:15.420Z,12.10
2022-09-25T23:06:43.000Z,12.10
2022-09-25T23:09:16.463Z,11.70
2022-09-25T23:14:19.938Z,12.10
2022-09-25T23:16:49.426Z,12.10
2022-09-25T23:19:17.319Z,12.00
2022-09-25T23:21:44.807Z,12.00
2022-09-25T23:24:14.867Z,12.00
2022-09-25T23:26:43.142Z,12.00
2022-09-25T23:29:14.742Z,11.90
2022-09-25T23:31:42.721Z,12.00
2022-09-25T23:34:10.879Z,12.00
2022-09-25T23:36:38.575Z,12.00
2022-09-25T23:39:08.750Z,12.00
2022-09-25T23:41:40.256Z,12.00
2022-09-25T23:44:10.078Z,12.00
2022-09-25T23:46:42.605Z,12.50
2022-09-25T23:49:10.957Z,12.00
2022-09-25T23:51:38.689Z,12.00
2022-09-25T23:54:06.943Z,12.00
2022-09-25T23:56:34.980Z,12.00
2022-09-25T23:59:03.695Z,12.00
